sensor_id;sensor_type;location;lat;lon;timestamp;temperature;humidity
6363;DHT22;3214;49.932;8.494;2024-01-15T00:02:01;-0.70;99.90
6363;DHT22;3214;49.932;8.494;2024-01-15T00:04:31;-0.80;99.90
6363;DHT22;3214;49.932;8.494;2024-01-15T00:07:00;-0.80;99.90
6363;DHT22;3214;49.932;8.494;2024-01-15T00:09:29;-0.80;99.90
6363;DHT22;3214;49.932;8.494;2024-01-15T00:12:00;-0.70;99.90
6363;DHT22;3214;49.932;8.494;2024-01-15T00:14:30;-0.80;99.90
6363;DHT22;3214;49.932;8.494;2024-01-15T00:17:07;-0.80;99.90
6363;DHT22;3214;49.932;8.494;2024-01-15T00:19:36;-0.70;99.90
6363;DHT22;3214;49.932;8.494;2024-01-15T00:22:09;-0.80;99.90
6363;DHT22;3214;49.932;8.494;2024-01-15T00:24:39;-0.70;99.90
6363;DHT22;3214;49.932;8.494;2024-01-15T00:27:09;-0.70;99.90
6363;DHT22;3214;49.932;8.494;2024-01-15T00:29:38;-0.80;99.90
6363;DHT22;3214;49.932;8.494;2024-01-15T00:32:05;-0.80;99.90
6363;DHT22;3214;49.932;8.494;2024-01-15T00:34:35;-0.70;99.90
6363;DHT22;3214;49.932;8.494;2024-01-15T00:37:03;-0.70;99.90
6363;DHT22;3214;49.932;8.494;2024-01-15T00:39:32;-0.70;99.90
6363;DHT22;3214;49.932;8.494;2024-01-15T00:42:01;-0.80;99.90
6363;DHT22;3214;49.932;8.494;2024-01-15T00:44:28;-0.70;99.90
6363;DHT22;3214;49.932;8.494;2024-01-15T00:46:57;-0.70;99.90
6363;DHT22;3214;49.932;8.494;2024-01-15T00:49:23;-0.60;99.90
6363;DHT22;3214;49.932;8.494;2024-01-15T00:51:51;-0.70;99.90
6363;DHT22;3214;49.932;8.494;2024-01-15T00:54:20;-0.70;99.90
6363;DHT22;3214;49.932;8.494;2024-01-15T00:56:51;-0.50;99.90
6363;DHT22;3214;49.932;8.494;2024-01-15T00:59:18;-0.80;99.90
6363;DHT22;3214;49.932;8.494;2024-01-15T01:01:46;-0.80;99.90
6363;DHT22;3214;49.932;8.494;2024-01-15T01:04:16;-0.60;99.90
6363;DHT22;3214;49.932;8.494;2024-01-15T01:06:43;-0.70;99.90
6363;DHT22;3214;49.932;8.494;2024-01-15T01:09:14;-0.80;99.90
6363;DHT22;3214;49.932;8.494;2024-01-15T01:11:41;-0.70;99.90
6363;DHT22;3214;49.932;8.494;2024-01-15T01:14:09;-0.90;99.90
6363;DHT22;3214;49.932;8.494;2024-01-15T01:16:45;-0.70;99.90
6363;DHT22;3214;49.932;8.494;2024-01-15T01:19:19;-0.90;99.90
6363;DHT22;3214;49.932;8.494;2024-01-15T01:21:48;-0.70;99.90
6363;DHT22;3214;49.932;8.494;2024-01-15T01:24:20;-0.70;99.90
6363;DHT22;3214;49.932;8.494;2024-01-15T01:26:59;-0.50;99.90
6363;DHT22;3214;49.932;8.494;2024-01-15T01:29:28;-0.60;99.90
6363;DHT22;3214;49.932;8.494;2024-01-15T01:31:56;-0.60;99.90
6363;DHT22;3214;49.932;8.494;2024-01-15T01:34:25;-0.60;99.90
6363;DHT22;3214;49.932;8.494;2024-01-15T01:36:53;-0.40;99.90
6363;DHT22;3214;49.932;8.494;2024-01-15T01:39:22;-0.60;99.90
6363;DHT22;3214;49.932;8.494;2024-01-15T01:41:50;-0.50;99.90
6363;DHT22;3214;49.932;8.494;2024-01-15T01:44:19;-0.40;99.90
6363;DHT22;3214;49.932;8.494;2024-01-15T01:46:47;-0.40;99.90
6363;DHT22;3214;49.932;8.494;2024-01-15T01:49:15;-0.40;99.90
6363;DHT22;3214;49.932;8.494;2024-01-15T01:51:44;-0.40;99.90
6363;DHT22;3214;49.932;8.494;2024-01-15T01:54:11;-0.30;99.90
6363;DHT22;3214;49.932;8.494;2024-01-15T01:56:39;-0.40;99.90
6363;DHT22;3214;49.932;8.494;2024-01-15T01:59:08;-0.40;99.90
6363;DHT22;3214;49.932;8.494;2024-01-15T02:01:41;-0.40;99.90
6363;DHT22;3214;49.932;8.494;2024-01-15T02:04:08;-0.40;99.90
6363;DHT22;3214;49.932;8.494;2024-01-15T02:06:36;-0.30;99.90
6363;DHT22;3214;49.932;8.494;2024-01-15T02:09:04;-0.30;99.90
6363;DHT22;3214;49.932;8.494;2024-01-15T02:11:32;-0.40;99.90
6363;DHT22;3214;49.932;8.494;2024-01-15T02:13:59;-0.30;99.90
6363;DHT22;3214;49.932;8.494;2024-01-15T02:16:26;-0.30;99.90
6363;DHT22;3214;49.932;8.494;2024-01-15T02:18:59;-0.30;99.90
6363;DHT22;3214;49.932;8.494;2024-01-15T02:21:26;-0.30;99.90
6363;DHT22;3214;49.932;8.494;2024-01-15T02:23:55;-0.20;99.90
6363;DHT22;3214;49.932;8.494;2024-01-15T02:26:23;-0.30;99.90
6363;DHT22;3214;49.932;8.494;2024-01-15T02:28:53;-0.30;99.90
6363;DHT22;3214;49.932;8.494;2024-01-15T02:31:20;0.00;99.90
6363;DHT22;3214;49.932;8.494;2024-01-15T02:33:47;-0.30;99.90
6363;DHT22;3214;49.932;8.494;2024-01-15T02:36:15;-0.40;99.90
6363;DHT22;3214;49.932;8.494;2024-01-15T02:38:42;-0.40;99.90
6363;DHT22;3214;49.932;8.494;2024-01-15T02:41:11;-0.50;99.90
6363;DHT22;3214;49.932;8.494;2024-01-15T02:43:39;-0.40;99.90
6363;DHT22;3214;49.932;8.494;2024-01-15T02:46:07;-0.30;99.90
6363;DHT22;3214;49.932;8.494;2024-01-15T02:48:34;-0.40;99.90
6363;DHT22;3214;49.932;8.494;2024-01-15T02:51:01;-0.40;99.90
6363;DHT22;3214;49.932;8.494;2024-01-15T02:53:29;-0.30;99.90
6363;DHT22;3214;49.932;8.494;2024-01-15T02:55:55;-0.40;99.90
6363;DHT22;3214;49.932;8.494;2024-01-15T02:58:27;-0.50;99.90
6363;DHT22;3214;49.932;8.494;2024-01-15T03:00:53;-0.50;99.90
6363;DHT22;3214;49.932;8.494;2024-01-15T03:03:20;-0.40;99.90
6363;DHT22;3214;49.932;8.494;2024-01-15T03:05:47;-0.30;99.90
6363;DHT22;3214;49.932;8.494;2024-01-15T03:08:14;-0.30;99.90
6363;DHT22;3214;49.932;8.494;2024-01-15T03:11:01;-0.40;99.90
6363;DHT22;3214;49.932;8.494;2024-01-15T03:13:29;-0.30;99.90
6363;DHT22;3214;49.932;8.494;2024-01-15T03:15:56;-0.40;99.90
6363;DHT22;3214;49.932;8.494;2024-01-15T03:18:23;-0.40;99.90
6363;DHT22;3214;49.932;8.494;2024-01-15T03:20:50;-0.40;99.90
6363;DHT22;3214;49.932;8.494;2024-01-15T03:23:16;-0.40;99.90
6363;DHT22;3214;49.932;8.494;2024-01-15T03:25:43;-0.30;99.90
6363;DHT22;3214;49.932;8.494;2024-01-15T03:28:11;-0.20;99.90
6363;DHT22;3214;49.932;8.494;2024-01-15T03:30:39;-0.20;99.90
6363;DHT22;3214;49.932;8.494;2024-01-15T03:33:06;-0.10;99.90
6363;DHT22;3214;49.932;8.494;2024-01-15T03:35:33;-0.10;99.90
6363;DHT22;3214;49.932;8.494;2024-01-15T03:38:00;-0.10;99.90
6363;DHT22;3214;49.932;8.494;2024-01-15T03:40:26;-0.10;99.90
6363;DHT22;3214;49.932;8.494;2024-01-15T03:42:53;-0.10;99.90
6363;DHT22;3214;49.932;8.494;2024-01-15T03:45:20;-0.10;99.90
6363;DHT22;3214;49.932;8.494;2024-01-15T03:47:48;-0.10;99.90
6363;DHT22;3214;49.932;8.494;2024-01-15T03:50:15;-0.10;99.90
6363;DHT22;3214;49.932;8.494;2024-01-15T03:52:42;-0.10;99.90
6363;DHT22;3214;49.932;8.494;2024-01-15T03:55:09;0.00;99.90
6363;DHT22;3214;49.932;8.494;2024-01-15T03:57:35;0.00;99.90
6363;DHT22;3214;49.932;8.494;2024-01-15T04:00:03;0.10;99.90
6363;DHT22;3214;49.932;8.494;2024-01-15T04:02:30;0.10;99.90
6363;DHT22;3214;49.932;8.494;2024-01-15T04:04:58;0.10;99.90
6363;DHT22;3214;49.932;8.494;2024-01-15T04:07:25;0.10;99.90
6363;DHT22;3214;49.932;8.494;2024-01-15T04:09:52;0.10;99.90
6363;DHT22;3214;49.932;8.494;2024-01-15T04:12:18;0.30;99.90
6363;DHT22;3214;49.932;8.494;2024-01-15T04:14:45;0.10;99.90
6363;DHT22;3214;49.932;8.494;2024-01-15T04:17:12;0.20;99.90
6363;DHT22;3214;49.932;8.494;2024-01-15T04:19:39;0.20;99.90
6363;DHT22;3214;49.932;8.494;2024-01-15T04:22:10;0.20;99.90
6363;DHT22;3214;49.932;8.494;2024-01-15T04:24:37;0.20;99.90
6363;DHT22;3214;49.932;8.494;2024-01-15T04:27:09;0.30;99.90
6363;DHT22;3214;49.932;8.494;2024-01-15T04:29:37;0.30;99.90
6363;DHT22;3214;49.932;8.494;2024-01-15T04:32:04;0.30;99.90
6363;DHT22;3214;49.932;8.494;2024-01-15T04:34:31;0.30;99.90
6363;DHT22;3214;49.932;8.494;2024-01-15T04:36:58;0.30;99.90
6363;DHT22;3214;49.932;8.494;2024-01-15T04:39:28;0.30;99.90
6363;DHT22;3214;49.932;8.494;2024-01-15T04:41:55;0.30;99.90
6363;DHT22;3214;49.932;8.494;2024-01-15T04:44:22;0.30;99.90
6363;DHT22;3214;49.932;8.494;2024-01-15T04:46:49;0.50;99.90
6363;DHT22;3214;49.932;8.494;2024-01-15T04:49:16;0.30;99.90
6363;DHT22;3214;49.932;8.494;2024-01-15T04:51:43;0.30;99.90
6363;DHT22;3214;49.932;8.494;2024-01-15T04:54:27;0.40;99.90
6363;DHT22;3214;49.932;8.494;2024-01-15T04:57:05;0.30;99.90
6363;DHT22;3214;49.932;8.494;2024-01-15T04:59:40;0.30;99.90
6363;DHT22;3214;49.932;8.494;2024-01-15T05:02:10;0.40;99.90
6363;DHT22;3214;49.932;8.494;2024-01-15T05:04:41;0.40;99.90
6363;DHT22;3214;49.932;8.494;2024-01-15T05:07:08;0.40;99.90
6363;DHT22;3214;49.932;8.494;2024-01-15T05:09:35;0.40;99.90
6363;DHT22;3214;49.932;8.494;2024-01-15T05:12:03;0.40;99.90
6363;DHT22;3214;49.932;8.494;2024-01-15T05:14:30;0.40;99.90
6363;DHT22;3214;49.932;8.494;2024-01-15T05:16:58;0.40;99.90
6363;DHT22;3214;49.932;8.494;2024-01-15T05:19:26;0.40;99.90
6363;DHT22;3214;49.932;8.494;2024-01-15T05:21:56;0.30;99.90
6363;DHT22;3214;49.932;8.494;2024-01-15T05:24:23;0.40;99.90
6363;DHT22;3214;49.932;8.494;2024-01-15T05:26:52;0.30;99.90
6363;DHT22;3214;49.932;8.494;2024-01-15T05:29:20;0.30;99.90
6363;DHT22;3214;49.932;8.494;2024-01-15T05:31:47;0.40;99.90
6363;DHT22;3214;49.932;8.494;2024-01-15T05:34:14;0.40;99.90
6363;DHT22;3214;49.932;8.494;2024-01-15T05:36:41;0.50;99.90
6363;DHT22;3214;49.932;8.494;2024-01-15T05:39:08;0.40;99.90
6363;DHT22;3214;49.932;8.494;2024-01-15T05:41:35;0.50;99.90
6363;DHT22;3214;49.932;8.494;2024-01-15T05:44:02;0.40;99.90
6363;DHT22;3214;49.932;8.494;2024-01-15T05:46:30;0.40;99.90
6363;DHT22;3214;49.932;8.494;2024-01-15T05:48:57;0.40;99.90
6363;DHT22;3214;49.932;8.494;2024-01-15T05:51:24;0.40;99.90
6363;DHT22;3214;49.932;8.494;2024-01-15T05:53:51;0.30;99.90
6363;DHT22;3214;49.932;8.494;2024-01-15T05:56:17;0.20;99.90
6363;DHT22;3214;49.932;8.494;2024-01-15T05:58:44;0.20;99.90
6363;DHT22;3214;49.932;8.494;2024-01-15T06:01:11;0.20;99.90
6363;DHT22;3214;49.932;8.494;2024-01-15T06:03:39;0.30;99.90
6363;DHT22;3214;49.932;8.494;2024-01-15T06:06:06;0.30;99.90
6363;DHT22;3214;49.932;8.494;2024-01-15T06:08:34;0.30;99.90
6363;DHT22;3214;49.932;8.494;2024-01-15T06:11:01;0.30;99.90
6363;DHT22;3214;49.932;8.494;2024-01-15T06:13:28;0.30;99.90
6363;DHT22;3214;49.932;8.494;2024-01-15T06:15:55;0.30;99.90
6363;DHT22;3214;49.932;8.494;2024-01-15T06:18:24;0.50;99.90
6363;DHT22;3214;49.932;8.494;2024-01-15T06:20:53;0.30;99.90
6363;DHT22;3214;49.932;8.494;2024-01-15T06:23:20;0.40;99.90
6363;DHT22;3214;49.932;8.494;2024-01-15T06:25:47;0.40;99.90
6363;DHT22;3214;49.932;8.494;2024-01-15T06:28:14;0.40;99.90
6363;DHT22;3214;49.932;8.494;2024-01-15T06:30:40;0.40;99.90
6363;DHT22;3214;49.932;8.494;2024-01-15T06:33:07;0.70;99.90
6363;DHT22;3214;49.932;8.494;2024-01-15T06:35:35;0.50;99.90
6363;DHT22;3214;49.932;8.494;2024-01-15T06:38:03;0.60;99.90
6363;DHT22;3214;49.932;8.494;2024-01-15T06:40:30;0.60;99.90
6363;DHT22;3214;49.932;8.494;2024-01-15T06:42:57;0.60;99.90
6363;DHT22;3214;49.932;8.494;2024-01-15T06:45:24;0.60;99.90
6363;DHT22;3214;49.932;8.494;2024-01-15T06:47:51;0.50;99.90
6363;DHT22;3214;49.932;8.494;2024-01-15T06:50:18;0.60;99.90
6363;DHT22;3214;49.932;8.494;2024-01-15T06:52:45;0.60;99.90
6363;DHT22;3214;49.932;8.494;2024-01-15T06:55:14;0.60;99.90
6363;DHT22;3214;49.932;8.494;2024-01-15T06:57:41;0.60;99.90
6363;DHT22;3214;49.932;8.494;2024-01-15T07:00:09;0.60;99.90
6363;DHT22;3214;49.932;8.494;2024-01-15T07:02:36;0.60;99.90
6363;DHT22;3214;49.932;8.494;2024-01-15T07:05:04;0.60;99.90
6363;DHT22;3214;49.932;8.494;2024-01-15T07:07:32;0.60;99.90
6363;DHT22;3214;49.932;8.494;2024-01-15T07:09:58;0.70;99.90
6363;DHT22;3214;49.932;8.494;2024-01-15T07:12:27;0.60;99.90
6363;DHT22;3214;49.932;8.494;2024-01-15T07:14:54;0.70;99.90
6363;DHT22;3214;49.932;8.494;2024-01-15T07:17:21;0.90;99.90
6363;DHT22;3214;49.932;8.494;2024-01-15T07:19:48;0.70;99.90
6363;DHT22;3214;49.932;8.494;2024-01-15T07:22:15;0.70;99.90
6363;DHT22;3214;49.932;8.494;2024-01-15T07:24:42;0.80;99.90
6363;DHT22;3214;49.932;8.494;2024-01-15T07:27:09;0.80;99.90
6363;DHT22;3214;49.932;8.494;2024-01-15T07:29:37;0.70;99.90
6363;DHT22;3214;49.932;8.494;2024-01-15T07:32:05;0.60;99.90
6363;DHT22;3214;49.932;8.494;2024-01-15T07:34:33;0.60;99.90
6363;DHT22;3214;49.932;8.494;2024-01-15T07:37:00;0.70;99.90
6363;DHT22;3214;49.932;8.494;2024-01-15T07:39:27;0.60;99.90
6363;DHT22;3214;49.932;8.494;2024-01-15T07:41:54;0.60;99.90
6363;DHT22;3214;49.932;8.494;2024-01-15T07:44:21;0.60;99.90
6363;DHT22;3214;49.932;8.494;2024-01-15T07:46:49;0.50;99.90
6363;DHT22;3214;49.932;8.494;2024-01-15T07:49:16;0.60;99.90
6363;DHT22;3214;49.932;8.494;2024-01-15T07:51:46;0.50;99.90
6363;DHT22;3214;49.932;8.494;2024-01-15T07:54:13;0.60;99.90
6363;DHT22;3214;49.932;8.494;2024-01-15T07:56:53;0.60;99.90
6363;DHT22;3214;49.932;8.494;2024-01-15T07:59:20;0.60;99.90
6363;DHT22;3214;49.932;8.494;2024-01-15T08:01:48;0.60;99.90
6363;DHT22;3214;49.932;8.494;2024-01-15T08:04:15;0.60;99.90
6363;DHT22;3214;49.932;8.494;2024-01-15T08:06:45;0.60;99.90
6363;DHT22;3214;49.932;8.494;2024-01-15T08:09:12;0.60;99.90
6363;DHT22;3214;49.932;8.494;2024-01-15T08:11:40;0.70;99.90
6363;DHT22;3214;49.932;8.494;2024-01-15T08:14:08;0.70;99.90
6363;DHT22;3214;49.932;8.494;2024-01-15T08:16:35;0.70;99.90
6363;DHT22;3214;49.932;8.494;2024-01-15T08:19:03;0.80;99.90
6363;DHT22;3214;49.932;8.494;2024-01-15T08:21:31;0.80;99.90
6363;DHT22;3214;49.932;8.494;2024-01-15T08:23:59;0.80;99.90
6363;DHT22;3214;49.932;8.494;2024-01-15T08:26:27;0.80;99.90
6363;DHT22;3214;49.932;8.494;2024-01-15T08:28:54;0.80;99.90
6363;DHT22;3214;49.932;8.494;2024-01-15T08:31:20;0.80;99.90
6363;DHT22;3214;49.932;8.494;2024-01-15T08:33:47;0.80;99.90
6363;DHT22;3214;49.932;8.494;2024-01-15T08:36:15;0.90;99.90
6363;DHT22;3214;49.932;8.494;2024-01-15T08:38:42;0.90;99.90
6363;DHT22;3214;49.932;8.494;2024-01-15T08:41:08;0.90;99.90
6363;DHT22;3214;49.932;8.494;2024-01-15T08:43:35;0.90;99.90
6363;DHT22;3214;49.932;8.494;2024-01-15T08:46:02;0.90;99.90
6363;DHT22;3214;49.932;8.494;2024-01-15T08:48:29;1.00;99.90
6363;DHT22;3214;49.932;8.494;2024-01-15T08:50:56;1.00;99.90
6363;DHT22;3214;49.932;8.494;2024-01-15T08:53:24;1.00;99.90
6363;DHT22;3214;49.932;8.494;2024-01-15T08:55:52;1.10;99.90
6363;DHT22;3214;49.932;8.494;2024-01-15T08:58:19;1.10;99.90
6363;DHT22;3214;49.932;8.494;2024-01-15T09:00:46;1.10;99.90
6363;DHT22;3214;49.932;8.494;2024-01-15T09:03:13;1.10;99.90
6363;DHT22;3214;49.932;8.494;2024-01-15T09:05:43;1.10;99.90
6363;DHT22;3214;49.932;8.494;2024-01-15T09:08:14;1.10;99.90
6363;DHT22;3214;49.932;8.494;2024-01-15T09:10:45;1.10;99.90
6363;DHT22;3214;49.932;8.494;2024-01-15T09:13:12;1.10;99.90
6363;DHT22;3214;49.932;8.494;2024-01-15T09:15:39;1.20;99.90
6363;DHT22;3214;49.932;8.494;2024-01-15T09:18:06;1.30;99.90
6363;DHT22;3214;49.932;8.494;2024-01-15T09:20:32;1.30;99.90
6363;DHT22;3214;49.932;8.494;2024-01-15T09:22:59;1.30;99.90
6363;DHT22;3214;49.932;8.494;2024-01-15T09:25:26;1.40;99.90
6363;DHT22;3214;49.932;8.494;2024-01-15T09:27:54;1.40;99.90
6363;DHT22;3214;49.932;8.494;2024-01-15T09:30:21;1.40;99.90
6363;DHT22;3214;49.932;8.494;2024-01-15T09:32:47;1.40;99.90
6363;DHT22;3214;49.932;8.494;2024-01-15T09:35:14;1.40;99.90
6363;DHT22;3214;49.932;8.494;2024-01-15T09:37:41;1.40;99.90
6363;DHT22;3214;49.932;8.494;2024-01-15T09:40:08;1.40;99.90
6363;DHT22;3214;49.932;8.494;2024-01-15T09:42:39;1.50;99.90
6363;DHT22;3214;49.932;8.494;2024-01-15T09:45:09;1.50;99.90
6363;DHT22;3214;49.932;8.494;2024-01-15T09:47:36;1.60;99.90
6363;DHT22;3214;49.932;8.494;2024-01-15T09:50:04;1.60;99.90
6363;DHT22;3214;49.932;8.494;2024-01-15T09:52:31;1.60;99.90
6363;DHT22;3214;49.932;8.494;2024-01-15T09:54:58;1.70;99.90
6363;DHT22;3214;49.932;8.494;2024-01-15T09:57:26;1.60;99.90
6363;DHT22;3214;49.932;8.494;2024-01-15T09:59:53;1.60;99.90
6363;DHT22;3214;49.932;8.494;2024-01-15T10:02:22;1.50;99.90
6363;DHT22;3214;49.932;8.494;2024-01-15T10:04:49;1.60;99.90
6363;DHT22;3214;49.932;8.494;2024-01-15T10:07:16;1.60;99.90
6363;DHT22;3214;49.932;8.494;2024-01-15T10:09:44;1.60;99.90
6363;DHT22;3214;49.932;8.494;2024-01-15T10:12:12;1.60;99.90
6363;DHT22;3214;49.932;8.494;2024-01-15T10:14:38;1.60;99.90
6363;DHT22;3214;49.932;8.494;2024-01-15T10:17:12;1.50;99.90
6363;DHT22;3214;49.932;8.494;2024-01-15T10:19:41;1.60;99.90
6363;DHT22;3214;49.932;8.494;2024-01-15T10:22:09;1.50;99.90
6363;DHT22;3214;49.932;8.494;2024-01-15T10:24:36;1.60;99.90
6363;DHT22;3214;49.932;8.494;2024-01-15T10:27:05;1.60;99.90
6363;DHT22;3214;49.932;8.494;2024-01-15T10:29:32;1.70;99.90
6363;DHT22;3214;49.932;8.494;2024-01-15T10:31:59;1.70;99.90
6363;DHT22;3214;49.932;8.494;2024-01-15T10:34:26;1.70;99.90
6363;DHT22;3214;49.932;8.494;2024-01-15T10:36:54;1.70;99.90
6363;DHT22;3214;49.932;8.494;2024-01-15T10:39:21;1.70;99.90
6363;DHT22;3214;49.932;8.494;2024-01-15T10:41:48;1.60;99.90
6363;DHT22;3214;49.932;8.494;2024-01-15T10:44:16;1.70;99.90
6363;DHT22;3214;49.932;8.494;2024-01-15T10:46:43;1.60;99.90
6363;DHT22;3214;49.932;8.494;2024-01-15T10:49:11;1.60;99.90
6363;DHT22;3214;49.932;8.494;2024-01-15T10:51:38;1.60;99.90
6363;DHT22;3214;49.932;8.494;2024-01-15T10:54:08;1.70;99.90
6363;DHT22;3214;49.932;8.494;2024-01-15T10:56:37;1.70;99.90
6363;DHT22;3214;49.932;8.494;2024-01-15T10:59:04;1.70;99.90
6363;DHT22;3214;49.932;8.494;2024-01-15T11:01:31;1.70;99.90
6363;DHT22;3214;49.932;8.494;2024-01-15T11:03:59;1.60;99.90
6363;DHT22;3214;49.932;8.494;2024-01-15T11:06:28;1.70;99.90
6363;DHT22;3214;49.932;8.494;2024-01-15T11:08:54;1.70;99.90
6363;DHT22;3214;49.932;8.494;2024-01-15T11:11:23;1.70;99.90
6363;DHT22;3214;49.932;8.494;2024-01-15T11:13:49;1.70;99.90
6363;DHT22;3214;49.932;8.494;2024-01-15T11:16:18;1.80;99.90
6363;DHT22;3214;49.932;8.494;2024-01-15T11:19:02;1.80;99.90
6363;DHT22;3214;49.932;8.494;2024-01-15T11:21:31;1.80;99.90
6363;DHT22;3214;49.932;8.494;2024-01-15T11:23:59;1.80;99.90
6363;DHT22;3214;49.932;8.494;2024-01-15T11:26:43;1.80;99.90
6363;DHT22;3214;49.932;8.494;2024-01-15T11:29:29;1.90;99.90
6363;DHT22;3214;49.932;8.494;2024-01-15T11:32:01;1.90;99.90
6363;DHT22;3214;49.932;8.494;2024-01-15T11:34:52;1.90;99.90
6363;DHT22;3214;49.932;8.494;2024-01-15T11:37:19;1.90;99.90
6363;DHT22;3214;49.932;8.494;2024-01-15T11:39:47;1.90;99.90
6363;DHT22;3214;49.932;8.494;2024-01-15T11:42:14;2.10;99.90
6363;DHT22;3214;49.932;8.494;2024-01-15T11:44:41;2.10;99.90
6363;DHT22;3214;49.932;8.494;2024-01-15T11:47:09;2.20;99.90
6363;DHT22;3214;49.932;8.494;2024-01-15T11:49:58;2.40;99.90
6363;DHT22;3214;49.932;8.494;2024-01-15T11:52:32;2.40;99.90
6363;DHT22;3214;49.932;8.494;2024-01-15T11:55:02;2.50;99.90
6363;DHT22;3214;49.932;8.494;2024-01-15T11:57:40;2.40;99.90
6363;DHT22;3214;49.932;8.494;2024-01-15T12:00:09;2.40;99.90
6363;DHT22;3214;49.932;8.494;2024-01-15T12:02:36;2.40;99.90
6363;DHT22;3214;49.932;8.494;2024-01-15T12:05:03;2.30;99.90
6363;DHT22;3214;49.932;8.494;2024-01-15T12:07:31;2.30;99.90
6363;DHT22;3214;49.932;8.494;2024-01-15T12:09:57;2.30;99.90
6363;DHT22;3214;49.932;8.494;2024-01-15T12:12:28;2.30;99.90
6363;DHT22;3214;49.932;8.494;2024-01-15T12:14:58;2.40;99.90
6363;DHT22;3214;49.932;8.494;2024-01-15T12:17:25;2.40;99.90
6363;DHT22;3214;49.932;8.494;2024-01-15T12:19:52;2.40;99.90
6363;DHT22;3214;49.932;8.494;2024-01-15T12:22:18;2.40;99.90
6363;DHT22;3214;49.932;8.494;2024-01-15T12:24:45;2.50;99.90
6363;DHT22;3214;49.932;8.494;2024-01-15T12:27:12;2.50;99.90
6363;DHT22;3214;49.932;8.494;2024-01-15T12:29:39;2.50;99.90
6363;DHT22;3214;49.932;8.494;2024-01-15T12:32:07;2.50;99.90
6363;DHT22;3214;49.932;8.494;2024-01-15T12:34:33;2.50;99.90
6363;DHT22;3214;49.932;8.494;2024-01-15T12:37:00;2.50;99.90
6363;DHT22;3214;49.932;8.494;2024-01-15T12:39:27;2.50;99.90
6363;DHT22;3214;49.932;8.494;2024-01-15T12:41:54;2.50;99.90
6363;DHT22;3214;49.932;8.494;2024-01-15T12:44:21;2.60;99.90
6363;DHT22;3214;49.932;8.494;2024-01-15T12:46:49;2.60;99.90
6363;DHT22;3214;49.932;8.494;2024-01-15T12:49:17;2.60;99.90
6363;DHT22;3214;49.932;8.494;2024-01-15T12:51:52;2.60;99.90
6363;DHT22;3214;49.932;8.494;2024-01-15T12:54:19;2.70;99.90
6363;DHT22;3214;49.932;8.494;2024-01-15T12:56:45;2.70;99.90
6363;DHT22;3214;49.932;8.494;2024-01-15T12:59:12;2.70;99.90
6363;DHT22;3214;49.932;8.494;2024-01-15T13:01:39;2.70;99.90
6363;DHT22;3214;49.932;8.494;2024-01-15T13:04:07;2.70;99.90
6363;DHT22;3214;49.932;8.494;2024-01-15T13:06:36;2.80;99.90
6363;DHT22;3214;49.932;8.494;2024-01-15T13:09:03;2.80;99.90
6363;DHT22;3214;49.932;8.494;2024-01-15T13:11:31;2.80;99.90
6363;DHT22;3214;49.932;8.494;2024-01-15T13:13:58;2.80;99.90
6363;DHT22;3214;49.932;8.494;2024-01-15T13:16:24;2.80;99.90
6363;DHT22;3214;49.932;8.494;2024-01-15T13:18:52;2.90;99.90
6363;DHT22;3214;49.932;8.494;2024-01-15T13:21:19;2.90;99.90
6363;DHT22;3214;49.932;8.494;2024-01-15T13:23:47;2.90;99.90
6363;DHT22;3214;49.932;8.494;2024-01-15T13:26:13;2.90;99.90
6363;DHT22;3214;49.932;8.494;2024-01-15T13:28:40;2.90;99.90
6363;DHT22;3214;49.932;8.494;2024-01-15T13:31:07;2.90;99.90
6363;DHT22;3214;49.932;8.494;2024-01-15T13:33:34;2.90;99.90
6363;DHT22;3214;49.932;8.494;2024-01-15T13:36:01;2.90;99.90
6363;DHT22;3214;49.932;8.494;2024-01-15T13:38:29;2.90;99.90
6363;DHT22;3214;49.932;8.494;2024-01-15T13:41:03;3.00;99.90
6363;DHT22;3214;49.932;8.494;2024-01-15T13:43:29;2.90;99.90
6363;DHT22;3214;49.932;8.494;2024-01-15T13:45:56;2.90;99.90
6363;DHT22;3214;49.932;8.494;2024-01-15T13:48:23;2.90;99.90
6363;DHT22;3214;49.932;8.494;2024-01-15T13:50:52;2.90;99.90
6363;DHT22;3214;49.932;8.494;2024-01-15T13:53:19;3.00;99.90
6363;DHT22;3214;49.932;8.494;2024-01-15T13:55:45;2.90;99.90
6363;DHT22;3214;49.932;8.494;2024-01-15T13:58:14;2.90;99.90
6363;DHT22;3214;49.932;8.494;2024-01-15T14:00:41;3.00;99.90
6363;DHT22;3214;49.932;8.494;2024-01-15T14:03:08;3.10;99.90
6363;DHT22;3214;49.932;8.494;2024-01-15T14:05:37;3.30;99.90
6363;DHT22;3214;49.932;8.494;2024-01-15T14:08:05;3.40;99.90
6363;DHT22;3214;49.932;8.494;2024-01-15T14:10:40;3.30;99.90
6363;DHT22;3214;49.932;8.494;2024-01-15T14:13:08;3.30;99.90
6363;DHT22;3214;49.932;8.494;2024-01-15T14:15:38;3.30;99.90
6363;DHT22;3214;49.932;8.494;2024-01-15T14:18:05;3.30;99.90
6363;DHT22;3214;49.932;8.494;2024-01-15T14:20:32;3.30;99.90
6363;DHT22;3214;49.932;8.494;2024-01-15T14:22:59;3.30;99.90
6363;DHT22;3214;49.932;8.494;2024-01-15T14:25:26;3.30;99.90
6363;DHT22;3214;49.932;8.494;2024-01-15T14:27:52;3.30;99.90
6363;DHT22;3214;49.932;8.494;2024-01-15T14:30:19;3.30;99.90
6363;DHT22;3214;49.932;8.494;2024-01-15T14:32:47;3.40;99.90
6363;DHT22;3214;49.932;8.494;2024-01-15T14:35:14;3.40;99.90
6363;DHT22;3214;49.932;8.494;2024-01-15T14:37:40;3.40;99.90
6363;DHT22;3214;49.932;8.494;2024-01-15T14:40:07;3.40;99.90
6363;DHT22;3214;49.932;8.494;2024-01-15T14:42:35;3.40;99.90
6363;DHT22;3214;49.932;8.494;2024-01-15T14:45:02;3.50;99.90
6363;DHT22;3214;49.932;8.494;2024-01-15T14:47:31;3.50;99.90
6363;DHT22;3214;49.932;8.494;2024-01-15T14:49:59;3.50;99.90
6363;DHT22;3214;49.932;8.494;2024-01-15T14:52:26;3.50;99.90
6363;DHT22;3214;49.932;8.494;2024-01-15T14:54:53;3.50;99.90
6363;DHT22;3214;49.932;8.494;2024-01-15T14:57:19;3.50;99.90
6363;DHT22;3214;49.932;8.494;2024-01-15T14:59:46;3.50;99.90
6363;DHT22;3214;49.932;8.494;2024-01-15T15:02:13;3.50;99.90
6363;DHT22;3214;49.932;8.494;2024-01-15T15:04:40;3.40;99.90
6363;DHT22;3214;49.932;8.494;2024-01-15T15:07:09;3.40;99.90
6363;DHT22;3214;49.932;8.494;2024-01-15T15:09:36;3.40;99.90
6363;DHT22;3214;49.932;8.494;2024-01-15T15:12:04;3.40;99.90
6363;DHT22;3214;49.932;8.494;2024-01-15T15:14:31;3.40;99.90
6363;DHT22;3214;49.932;8.494;2024-01-15T15:17:03;3.40;99.90
6363;DHT22;3214;49.932;8.494;2024-01-15T15:19:30;3.30;99.90
6363;DHT22;3214;49.932;8.494;2024-01-15T15:21:57;3.30;99.90
6363;DHT22;3214;49.932;8.494;2024-01-15T15:24:25;3.30;99.90
6363;DHT22;3214;49.932;8.494;2024-01-15T15:26:52;3.30;99.90
6363;DHT22;3214;49.932;8.494;2024-01-15T15:29:20;3.30;99.90
6363;DHT22;3214;49.932;8.494;2024-01-15T15:31:49;3.30;99.90
6363;DHT22;3214;49.932;8.494;2024-01-15T15:34:15;3.30;99.90
6363;DHT22;3214;49.932;8.494;2024-01-15T15:36:42;3.30;99.90
6363;DHT22;3214;49.932;8.494;2024-01-15T15:39:09;3.20;99.90
6363;DHT22;3214;49.932;8.494;2024-01-15T15:41:37;3.20;99.90
6363;DHT22;3214;49.932;8.494;2024-01-15T15:44:04;3.10;99.90
6363;DHT22;3214;49.932;8.494;2024-01-15T15:46:31;3.10;99.90
6363;DHT22;3214;49.932;8.494;2024-01-15T15:49:00;3.10;99.90
6363;DHT22;3214;49.932;8.494;2024-01-15T15:51:31;3.00;99.90
6363;DHT22;3214;49.932;8.494;2024-01-15T15:53:58;3.00;99.90
6363;DHT22;3214;49.932;8.494;2024-01-15T15:56:25;3.00;99.90
6363;DHT22;3214;49.932;8.494;2024-01-15T15:58:53;2.90;99.90
6363;DHT22;3214;49.932;8.494;2024-01-15T16:01:20;2.90;99.90
6363;DHT22;3214;49.932;8.494;2024-01-15T16:03:47;2.90;99.90
6363;DHT22;3214;49.932;8.494;2024-01-15T16:06:14;2.90;99.90
6363;DHT22;3214;49.932;8.494;2024-01-15T16:08:41;2.90;99.90
6363;DHT22;3214;49.932;8.494;2024-01-15T16:11:07;2.80;99.90
6363;DHT22;3214;49.932;8.494;2024-01-15T16:13:34;2.80;99.90
6363;DHT22;3214;49.932;8.494;2024-01-15T16:16:02;2.80;99.90
6363;DHT22;3214;49.932;8.494;2024-01-15T16:18:29;2.80;99.90
6363;DHT22;3214;49.932;8.494;2024-01-15T16:20:56;2.80;99.90